createdAt,value
2022-10-01T00:00:42.990Z,7.3
2022-10-01T00:31:02.240Z,12.1
2022-10-01T01:01:19.359Z,15.7
2022-10-01T01:31:40.138Z,12.1
2022-10-01T02:01:59.380Z,10.6
2022-10-01T02:32:18.613Z,15.3
2022-10-01T03:02:36.842Z,6.8
2022-10-01T03:32:55.906Z,8.8
2022-10-01T04:33:34.468Z,8.3
2022-10-01T05:03:55.465Z,8.7
2022-10-01T05:34:13.733Z,7.4
2022-10-01T06:04:41.401Z,7.2
2022-10-01T06:34:56.794Z,4.8
2022-10-01T07:23:22.959Z,4.8
2022-10-01T07:30:10.101Z,4.2
2022-10-01T08:00:13.496Z,1.8
2022-10-01T08:30:26.513Z,3.8
2022-10-01T09:00:43.829Z,1.3
2022-10-01T09:31:02.799Z,1.1
2022-10-01T10:01:25.909Z,0.9
2022-10-01T10:31:47.502Z,1
2022-10-01T11:02:06.813Z,0.6
2022-10-01T11:32:32.136Z,1.1
2022-10-01T12:03:05.279Z,4.8
2022-10-01T12:33:36.403Z,1.1
2022-10-01T13:03:52.145Z,1.2
2022-10-01T13:34:08.070Z,1.1
2022-10-01T14:04:25.345Z,0.9
2022-10-01T14:34:45.935Z,2.3
2022-10-01T15:05:02.411Z,1.5
2022-10-01T15:35:21.285Z,2
2022-10-01T16:05:37.906Z,2.5
2022-10-01T16:35:54.073Z,15.5
2022-10-01T17:06:11.473Z,8
2022-10-01T17:36:29.188Z,1.8
2022-10-01T18:06:47.254Z,3.4
2022-10-01T18:37:03.920Z,7
2022-10-01T19:07:22.215Z,7.7
2022-10-01T19:37:40.420Z,4.1
2022-10-01T20:08:02.134Z,1.9
2022-10-01T20:38:19.762Z,6.2
2022-10-01T21:08:38.379Z,2.4
2022-10-01T21:39:49.279Z,7.9
2022-10-01T22:10:08.358Z,7.9
2022-10-01T22:40:26.898Z,10.6
2022-10-01T23:10:45.362Z,12.7
2022-10-01T23:41:03.866Z,8
